createdAt,value
2023-03-04T00:00:30.209Z,102638.59
2023-03-04T00:02:58.836Z,102637.22
2023-03-04T00:05:25.464Z,102641.88
2023-03-04T00:07:52.059Z,102630.88
2023-03-04T00:10:18.771Z,102630.06
2023-03-04T00:12:45.429Z,102623.47
2023-03-04T00:15:12.097Z,102623.47
2023-03-04T00:17:38.738Z,102618.25
2023-03-04T00:20:05.869Z,102630.88
2023-03-04T00:22:33.571Z,102618.50
2023-03-04T00:25:00.201Z,102613.81
2023-03-04T00:27:26.782Z,102626.19
2023-03-04T00:29:53.432Z,102621.53
2023-03-04T00:32:20.177Z,102622.34
2023-03-04T00:34:46.821Z,102625.91
2023-03-04T00:37:13.734Z,102625.09
2023-03-04T00:39:40.467Z,102614.09
2023-03-04T00:42:07.156Z,102616.84
2023-03-04T00:44:33.773Z,102610.53
2023-03-04T00:47:00.390Z,102616.03
2023-03-04T00:49:27.106Z,102613.00
2023-03-04T00:51:54.786Z,102605.03
2023-03-04T00:54:21.713Z,102610.53
2023-03-04T00:56:50.474Z,102611.06
2023-03-04T00:59:17.130Z,102608.84
2023-03-04T01:01:43.822Z,102601.69
2023-03-04T01:04:11.571Z,102597.31
2023-03-04T01:06:38.202Z,102596.75
2023-03-04T01:09:04.796Z,102600.56
2023-03-04T01:11:31.478Z,102606.06
2023-03-04T01:13:58.166Z,102604.38
2023-03-04T01:16:24.880Z,102609.34
2023-03-04T01:18:51.568Z,102607.44
2023-03-04T01:21:18.252Z,102614.84
2023-03-04T01:23:44.849Z,102616.75
2023-03-04T01:26:11.569Z,102605.75
2023-03-04T01:28:38.436Z,102619.50
2023-03-04T01:31:05.220Z,102612.91
2023-03-04T01:33:32.051Z,102619.25
2023-03-04T01:35:58.759Z,102615.13
2023-03-04T01:38:25.595Z,102619.78
2023-03-04T01:40:52.737Z,102624.44
2023-03-04T01:43:23.537Z,102621.44
2023-03-04T01:45:52.207Z,102618.69
2023-03-04T01:48:24.620Z,102612.09
2023-03-04T01:50:51.436Z,102608.50
2023-03-04T01:53:22.491Z,102618.69
2023-03-04T01:55:50.028Z,102618.13
2023-03-04T01:58:16.690Z,102609.88
2023-03-04T02:00:43.778Z,102612.63
2023-03-04T02:03:15.302Z,102613.16
2023-03-04T02:05:45.757Z,102609.56
2023-03-04T02:08:14.186Z,102604.88
2023-03-04T02:10:43.515Z,102603.25
2023-03-04T02:13:11.255Z,102597.75
2023-03-04T02:15:38.011Z,102604.59
2023-03-04T02:18:15.067Z,102603.22
2023-03-04T02:20:51.411Z,102601.00
2023-03-04T02:23:37.939Z,102602.09
2023-03-04T02:26:19.823Z,102595.50
2023-03-04T02:28:49.062Z,102591.06
2023-03-04T02:31:37.935Z,102598.75
2023-03-04T02:34:11.293Z,102587.78
2023-03-04T02:36:38.970Z,102583.38
2023-03-04T02:39:15.799Z,102582.81
2023-03-04T02:41:44.543Z,102593.53
2023-03-04T02:44:20.849Z,102583.63
2023-03-04T02:46:47.685Z,102583.13
2023-03-04T02:49:14.656Z,102583.38
2023-03-04T02:51:41.379Z,102590.78
2023-03-04T02:54:22.493Z,102582.81
2023-03-04T02:56:50.875Z,102589.38
2023-03-04T02:59:18.654Z,102587.16
2023-03-04T03:01:45.848Z,102585.53
2023-03-04T03:04:13.217Z,102586.59
2023-03-04T03:06:40.681Z,102591.53
2023-03-04T03:09:08.799Z,102588.78
2023-03-04T03:11:35.422Z,102587.38
2023-03-04T03:14:02.182Z,102590.13
2023-03-04T03:16:29.297Z,102590.38
2023-03-04T03:18:56.390Z,102584.88
2023-03-04T03:21:23.204Z,102594.25
2023-03-04T03:23:50.344Z,102588.44
2023-03-04T03:26:17.834Z,102584.06
2023-03-04T03:28:44.530Z,102583.22
2023-03-04T03:31:11.264Z,102586.22
2023-03-04T03:33:37.946Z,102582.63
2023-03-04T03:36:05.405Z,102579.91
2023-03-04T03:38:32.224Z,102579.34
2023-03-04T03:40:58.823Z,102577.94
2023-03-04T03:43:25.504Z,102574.09
2023-03-04T03:45:52.269Z,102574.09
2023-03-04T03:48:19.025Z,102574.66
2023-03-04T03:51:00.288Z,102566.13
2023-03-04T03:53:26.919Z,102566.97
2023-03-04T03:55:53.595Z,102569.47
2023-03-04T03:58:20.273Z,102573.28
2023-03-04T04:00:46.887Z,102569.44
2023-03-04T04:03:16.129Z,102563.94
2023-03-04T04:05:42.738Z,102565.03
2023-03-04T04:08:18.786Z,102561.72
2023-03-04T04:10:45.443Z,102570.75
2023-03-04T04:13:12.204Z,102566.09
2023-03-04T04:15:39.272Z,102568.03
2023-03-04T04:18:07.285Z,102562.25
2023-03-04T04:20:34.370Z,102569.38
2023-03-04T04:23:01.032Z,102572.13
2023-03-04T04:25:27.819Z,102577.06
2023-03-04T04:27:54.429Z,102576.22
2023-03-04T04:30:21.112Z,102582.56
2023-03-04T04:32:47.718Z,102565.25
2023-03-04T04:35:14.377Z,102569.34
2023-03-04T04:37:41.071Z,102571.25
2023-03-04T04:40:08.773Z,102561.09
2023-03-04T04:42:35.443Z,102575.44
2023-03-04T04:45:02.320Z,102574.59
2023-03-04T04:47:29.578Z,102571.25
2023-03-04T04:49:56.332Z,102570.69
2023-03-04T04:52:22.956Z,102564.97
2023-03-04T04:54:49.579Z,102572.63
2023-03-04T04:57:16.277Z,102578.38
2023-03-04T04:59:42.877Z,102574.81
2023-03-04T05:02:09.555Z,102576.47
2023-03-04T05:04:36.173Z,102571.81
2023-03-04T05:07:02.992Z,102576.47
2023-03-04T05:09:29.621Z,102584.16
2023-03-04T05:11:56.366Z,102571.50
2023-03-04T05:14:23.008Z,102577.81
2023-03-04T05:16:49.709Z,102577.28
2023-03-04T05:19:16.395Z,102575.31
2023-03-04T05:21:42.973Z,102583.03
2023-03-04T05:24:09.687Z,102578.66
2023-03-04T05:26:36.376Z,102579.72
2023-03-04T05:29:03.780Z,102570.94
2023-03-04T05:31:30.757Z,102580.81
2023-03-04T05:33:57.495Z,102583.56
2023-03-04T05:36:24.251Z,102590.16
2023-03-04T05:38:50.920Z,102589.56
2023-03-04T05:41:20.416Z,102586.81
2023-03-04T05:43:47.010Z,102584.34
2023-03-04T05:46:15.385Z,102587.94
2023-03-04T05:48:42.683Z,102590.69
2023-03-04T05:51:09.412Z,102589.00
2023-03-04T05:53:40.206Z,102586.53
2023-03-04T05:56:11.095Z,102588.72
2023-03-04T05:58:38.214Z,102578.00
2023-03-04T06:01:05.211Z,102591.72
2023-03-04T06:03:32.243Z,102584.59
2023-03-04T06:06:01.409Z,102586.22
2023-03-04T06:08:28.196Z,102587.91
2023-03-04T06:10:56.787Z,102596.13
2023-03-04T06:13:23.742Z,102590.09
2023-03-04T06:16:00.025Z,102587.34
2023-03-04T06:18:29.571Z,102588.97
2023-03-04T06:21:01.563Z,102594.22
2023-03-04T06:23:28.884Z,102594.22
2023-03-04T06:25:57.110Z,102605.72
2023-03-04T06:28:24.857Z,102601.59
2023-03-04T06:30:55.881Z,102598.25
2023-03-04T06:33:22.985Z,102599.09
2023-03-04T06:35:54.966Z,102598.25
2023-03-04T06:38:21.613Z,102602.09
2023-03-04T06:40:48.266Z,102591.97
2023-03-04T06:43:14.922Z,102595.25
2023-03-04T06:45:41.530Z,102591.13
2023-03-04T06:48:08.534Z,102592.19
2023-03-04T06:50:35.165Z,102597.44
2023-03-04T06:53:01.861Z,102593.88
2023-03-04T06:55:28.478Z,102603.69
2023-03-04T06:57:55.183Z,102600.94
2023-03-04T07:00:24.009Z,102602.88
2023-03-04T07:02:52.887Z,102594.66
2023-03-04T07:05:20.681Z,102600.16
2023-03-04T07:07:48.479Z,102596.56
2023-03-04T07:10:15.393Z,102599.56
2023-03-04T07:12:42.013Z,102595.41
2023-03-04T07:15:09.722Z,102601.47
2023-03-04T07:17:36.429Z,102597.34
2023-03-04T07:20:03.848Z,102589.38
2023-03-04T07:22:30.495Z,102596.53
2023-03-04T07:24:57.174Z,102593.78
2023-03-04T07:27:24.446Z,102599.00
2023-03-04T07:29:51.109Z,102595.97
2023-03-04T07:32:17.845Z,102599.56
2023-03-04T07:34:44.559Z,102594.91
2023-03-04T07:37:11.133Z,102604.81
2023-03-04T07:39:37.816Z,102603.13
2023-03-04T07:42:04.528Z,102603.97
2023-03-04T07:44:31.189Z,102614.13
2023-03-04T07:46:57.827Z,102600.41
2023-03-04T07:49:24.411Z,102603.97
2023-03-04T07:51:51.077Z,102605.91
2023-03-04T07:54:20.294Z,102611.41
2023-03-04T07:56:47.047Z,102604.84
2023-03-04T07:59:13.730Z,102606.47
2023-03-04T08:01:40.401Z,102618.03
2023-03-04T08:04:07.669Z,102618.84
2023-03-04T08:06:35.269Z,102618.03
2023-03-04T08:09:05.640Z,102619.13
2023-03-04T08:11:33.376Z,102621.88
2023-03-04T08:14:00.069Z,102625.16
2023-03-04T08:16:26.963Z,102628.50
2023-03-04T08:18:56.297Z,102633.44
2023-03-04T08:21:24.534Z,102632.63
2023-03-04T08:23:52.194Z,102633.44
2023-03-04T08:26:31.204Z,102634.00
2023-03-04T08:28:58.169Z,102636.16
2023-03-04T08:31:25.115Z,102641.63
2023-03-04T08:33:53.065Z,102641.41
2023-03-04T08:36:20.208Z,102637.28
2023-03-04T08:38:47.053Z,102635.63
2023-03-04T08:41:15.449Z,102630.97
2023-03-04T08:43:42.791Z,102629.91
2023-03-04T08:46:09.503Z,102623.63
2023-03-04T08:48:37.246Z,102621.94
2023-03-04T08:51:11.809Z,102623.63
2023-03-04T08:53:39.178Z,102617.28
2023-03-04T08:56:07.421Z,102619.75
2023-03-04T08:58:34.434Z,102625.25
2023-03-04T09:01:02.439Z,102624.44
2023-03-04T09:03:29.256Z,102618.97
2023-03-04T09:05:56.332Z,102624.72
2023-03-04T09:08:23.065Z,102617.66
2023-03-04T09:10:53.340Z,102616.53
2023-03-04T09:13:20.591Z,102622.56
2023-03-04T09:15:48.887Z,102618.47
2023-03-04T09:18:16.380Z,102619.88
2023-03-04T09:20:45.394Z,102616.28
2023-03-04T09:23:13.057Z,102606.38
2023-03-04T09:25:40.683Z,102610.53
2023-03-04T09:28:07.632Z,102611.13
2023-03-04T09:30:35.654Z,102618.22
2023-03-04T09:33:02.443Z,102621.50
2023-03-04T09:35:30.388Z,102618.00
2023-03-04T09:37:58.148Z,102619.94
2023-03-04T09:40:47.301Z,102614.75
2023-03-04T09:43:23.785Z,102626.03
2023-03-04T09:45:56.002Z,102615.03
2023-03-04T09:48:28.168Z,102627.69
2023-03-04T09:51:23.076Z,102629.88
2023-03-04T09:53:57.564Z,102627.66
2023-03-04T09:56:26.002Z,102627.66
2023-03-04T09:59:24.942Z,102626.31
2023-03-04T10:01:58.013Z,102624.63
2023-03-04T10:04:40.015Z,102629.28
2023-03-04T10:07:17.327Z,102623.56
2023-03-04T10:09:53.938Z,102623.28
2023-03-04T10:12:24.541Z,102621.09
2023-03-04T10:15:00.526Z,102617.81
2023-03-04T10:17:40.172Z,102616.19
2023-03-04T10:20:18.771Z,102627.16
2023-03-04T10:22:56.409Z,102616.75
2023-03-04T10:25:27.222Z,102613.47
2023-03-04T10:28:02.954Z,102615.09
2023-03-04T10:30:51.211Z,102608.53
2023-03-04T10:33:21.028Z,102620.34
2023-03-04T10:35:53.544Z,102615.09
2023-03-04T10:38:22.037Z,102618.69
2023-03-04T10:40:48.768Z,102615.41
2023-03-04T10:43:20.605Z,102609.09
2023-03-04T10:45:49.207Z,102605.50
2023-03-04T10:48:28.495Z,102603.59
2023-03-04T10:51:19.553Z,102597.84
2023-03-04T10:53:49.081Z,102595.09
2023-03-04T10:56:35.693Z,102592.06
2023-03-04T10:59:39.219Z,102592.38
2023-03-04T11:02:17.878Z,102585.84
2023-03-04T11:04:57.656Z,102584.47
2023-03-04T11:07:26.866Z,102589.97
2023-03-04T11:09:54.908Z,102578.41
2023-03-04T11:12:33.337Z,102586.13
2023-03-04T11:15:00.196Z,102590.25
2023-03-04T11:17:59.307Z,102585.34
2023-03-04T11:20:29.372Z,102584.53
2023-03-04T11:23:00.001Z,102579.56
2023-03-04T11:25:31.041Z,102583.16
2023-03-04T11:28:03.371Z,102575.47
2023-03-04T11:30:44.258Z,102576.31
2023-03-04T11:33:33.443Z,102580.44
2023-03-04T11:36:10.856Z,102577.41
2023-03-04T11:38:47.457Z,102579.38
2023-03-04T11:41:19.374Z,102573.03
2023-03-04T11:43:47.433Z,102574.13
2023-03-04T11:46:33.155Z,102578.84
2023-03-04T11:49:26.048Z,102567.03
2023-03-04T11:52:01.454Z,102567.56
2023-03-04T11:55:09.521Z,102570.59
2023-03-04T11:57:44.996Z,102565.72
2023-03-04T12:00:32.789Z,102557.47
2023-03-04T12:03:29.653Z,102558.00
2023-03-04T12:06:02.185Z,102549.78
2023-03-04T12:08:50.112Z,102553.06
2023-03-04T12:11:55.377Z,102558.34
2023-03-04T12:14:28.111Z,102553.38
2023-03-04T12:17:03.475Z,102551.22
2023-03-04T12:19:42.253Z,102555.06
2023-03-04T12:22:30.304Z,102552.03
2023-03-04T12:25:30.452Z,102554.53
2023-03-04T12:28:00.799Z,102554.53
2023-03-04T12:30:45.453Z,102557.53
2023-03-04T12:33:33.081Z,102545.19
2023-03-04T12:36:08.635Z,102549.56
2023-03-04T12:38:56.519Z,102544.63
2023-03-04T12:41:41.552Z,102547.66
2023-03-04T12:44:18.184Z,102549.84
2023-03-04T12:47:00.502Z,102541.84
2023-03-04T12:49:45.912Z,102540.22
2023-03-04T12:52:48.190Z,102527.03
2023-03-04T12:55:19.111Z,102535.28
2023-03-04T12:57:46.322Z,102536.13
2023-03-04T13:00:12.914Z,102533.13
2023-03-04T13:03:06.574Z,102521.53
2023-03-04T13:06:08.513Z,102513.84
2023-03-04T13:09:14.909Z,102514.41
2023-03-04T13:11:45.022Z,102507.53
2023-03-04T13:14:15.086Z,102516.03
2023-03-04T13:16:50.250Z,102503.38
2023-03-04T13:20:11.043Z,102492.38
2023-03-04T13:22:40.819Z,102502.84
2023-03-04T13:25:29.204Z,102499.56
2023-03-04T13:28:11.898Z,102493.22
2023-03-04T13:30:38.900Z,102494.28
2023-03-04T13:33:08.441Z,102488.00
2023-03-04T13:35:48.658Z,102484.41
2023-03-04T13:38:37.352Z,102472.56
2023-03-04T13:41:21.824Z,102472.81
2023-03-04T13:43:49.897Z,102469.78
2023-03-04T13:46:19.536Z,102468.16
2023-03-04T13:49:35.475Z,102465.41
2023-03-04T13:52:37.901Z,102452.19
2023-03-04T13:55:37.248Z,102456.56
2023-03-04T13:58:21.238Z,102447.22
2023-03-04T14:00:51.199Z,102450.50
2023-03-04T14:03:27.841Z,102450.78
2023-03-04T14:06:28.113Z,102451.63
2023-03-04T14:08:56.147Z,102446.66
2023-03-04T14:11:39.657Z,102456.00
2023-03-04T14:14:11.475Z,102449.69
2023-03-04T14:16:41.160Z,102443.63
2023-03-04T14:19:20.006Z,102446.66
2023-03-04T14:21:47.557Z,102440.03
2023-03-04T14:24:18.169Z,102440.03
2023-03-04T14:26:44.948Z,102433.97
2023-03-04T14:29:24.775Z,102442.53
2023-03-04T14:31:52.424Z,102429.63
2023-03-04T14:34:28.551Z,102427.41
2023-03-04T14:36:56.553Z,102438.41
2023-03-04T14:39:26.660Z,102424.09
2023-03-04T14:42:01.153Z,102427.44
2023-03-04T14:44:38.124Z,102429.06
2023-03-04T14:47:22.119Z,102419.44
2023-03-04T14:49:49.374Z,102421.91
2023-03-04T14:52:43.901Z,102410.34
2023-03-04T14:55:18.507Z,102410.34
2023-03-04T14:57:47.658Z,102410.91
2023-03-04T15:00:36.215Z,102405.09
2023-03-04T15:03:25.278Z,102397.69
2023-03-04T15:05:53.087Z,102397.97
2023-03-04T15:08:29.785Z,102392.72
2023-03-04T15:11:02.721Z,102394.94
2023-03-04T15:13:45.070Z,102400.97
2023-03-04T15:16:14.626Z,102406.50
2023-03-04T15:18:57.207Z,102402.38
2023-03-04T15:21:41.158Z,102406.50
2023-03-04T15:24:10.038Z,102393.56
2023-03-04T15:26:41.670Z,102399.34
2023-03-04T15:29:17.095Z,102389.72
2023-03-04T15:31:44.637Z,102383.41
2023-03-04T15:34:16.360Z,102388.34
2023-03-04T15:36:49.121Z,102388.13
2023-03-04T15:39:18.140Z,102383.41
2023-03-04T15:41:46.956Z,102386.19
2023-03-04T15:44:13.798Z,102390.59
2023-03-04T15:46:41.134Z,102378.22
2023-03-04T15:49:07.871Z,102374.09
2023-03-04T15:51:34.653Z,102379.31
2023-03-04T15:54:01.463Z,102369.41
2023-03-04T15:56:33.912Z,102366.41
2023-03-04T15:59:11.099Z,102363.09
2023-03-04T16:01:38.382Z,102359.25
2023-03-04T16:04:06.761Z,102358.41
2023-03-04T16:06:33.544Z,102359.78
2023-03-04T16:09:01.546Z,102357.59
2023-03-04T16:11:31.447Z,102358.72
2023-03-04T16:13:58.175Z,102357.59
2023-03-04T16:16:25.224Z,102357.34
2023-03-04T16:18:52.001Z,102355.72
2023-03-04T16:21:23.287Z,102352.41
2023-03-04T16:23:51.631Z,102352.13
2023-03-04T16:26:21.831Z,102348.53
2023-03-04T16:28:48.716Z,102349.09
2023-03-04T16:31:16.183Z,102352.13
2023-03-04T16:33:43.021Z,102359.28
2023-03-04T16:36:20.378Z,102348.84
2023-03-04T16:38:47.580Z,102354.34
2023-03-04T16:41:16.186Z,102353.78
2023-03-04T16:43:43.192Z,102355.13
2023-03-04T16:46:13.877Z,102348.28
2023-03-04T16:48:41.136Z,102358.72
2023-03-04T16:51:17.541Z,102356.25
2023-03-04T16:53:48.841Z,102355.44
2023-03-04T16:56:17.571Z,102352.97
2023-03-04T16:58:44.839Z,102342.53
2023-03-04T17:01:17.782Z,102345.53
2023-03-04T17:03:44.825Z,102346.88
2023-03-04T17:06:12.575Z,102355.41
2023-03-04T17:08:39.500Z,102352.13
2023-03-04T17:11:06.368Z,102345.25
2023-03-04T17:13:33.069Z,102344.41
2023-03-04T17:16:02.312Z,102346.63
2023-03-04T17:18:29.847Z,102349.34
2023-03-04T17:21:05.034Z,102349.06
2023-03-04T17:23:31.821Z,102340.84
2023-03-04T17:25:59.354Z,102345.50
2023-03-04T17:28:26.674Z,102349.31
2023-03-04T17:30:53.505Z,102355.94
2023-03-04T17:33:20.906Z,102341.38
2023-03-04T17:35:47.630Z,102340.84
2023-03-04T17:38:15.782Z,102338.34
2023-03-04T17:40:43.911Z,102335.34
2023-03-04T17:43:13.686Z,102339.16
2023-03-04T17:45:42.103Z,102344.94
2023-03-04T17:48:15.303Z,102341.63
2023-03-04T17:50:51.750Z,102341.91
2023-03-04T17:53:19.162Z,102333.13
2023-03-04T17:55:52.774Z,102338.88
2023-03-04T17:58:20.032Z,102342.75
2023-03-04T18:00:46.732Z,102343.81
2023-03-04T18:03:14.560Z,102336.41
2023-03-04T18:05:41.354Z,102340.53
2023-03-04T18:08:08.058Z,102333.66
2023-03-04T18:10:34.733Z,102324.03
2023-03-04T18:13:01.405Z,102328.72
2023-03-04T18:15:28.137Z,102327.88
2023-03-04T18:17:54.692Z,102327.88
2023-03-04T18:20:21.556Z,102324.59
2023-03-04T18:22:48.259Z,102318.25
2023-03-04T18:25:14.905Z,102321.84
2023-03-04T18:27:42.125Z,102317.97
2023-03-04T18:30:17.568Z,102317.97
2023-03-04T18:32:51.890Z,102317.97
2023-03-04T18:35:19.714Z,102316.34
2023-03-04T18:37:46.914Z,102314.69
2023-03-04T18:40:14.251Z,102307.53
2023-03-04T18:42:44.121Z,102314.44
2023-03-04T18:45:15.796Z,102309.19
2023-03-04T18:47:48.939Z,102306.44
2023-03-04T18:50:15.973Z,102310.84
2023-03-04T18:52:43.142Z,102304.81
2023-03-04T18:55:11.048Z,102305.63
2023-03-04T18:57:40.529Z,102309.19
2023-03-04T19:00:10.472Z,102303.16
2023-03-04T19:02:52.264Z,102301.25
2023-03-04T19:05:23.184Z,102301.78
2023-03-04T19:07:50.002Z,102293.56
2023-03-04T19:10:19.077Z,102299.88
2023-03-04T19:12:46.121Z,102298.22
2023-03-04T19:15:13.232Z,102292.72
2023-03-04T19:17:40.643Z,102289.16
2023-03-04T19:20:09.397Z,102281.72
2023-03-04T19:22:36.210Z,102285.84
2023-03-04T19:25:03.043Z,102277.63
2023-03-04T19:27:30.442Z,102272.94
2023-03-04T19:29:57.370Z,102272.13
2023-03-04T19:32:24.389Z,102277.63
2023-03-04T19:34:51.055Z,102273.25
2023-03-04T19:37:18.066Z,102271.88
2023-03-04T19:39:44.803Z,102265.78
2023-03-04T19:42:13.281Z,102275.16
2023-03-04T19:44:41.716Z,102258.69
2023-03-04T19:47:10.263Z,102263.34
2023-03-04T19:49:36.924Z,102259.75
2023-03-04T19:52:03.651Z,102262.78
2023-03-04T19:54:30.448Z,102258.94
2023-03-04T19:56:58.763Z,102252.59
2023-03-04T19:59:26.650Z,102256.19
2023-03-04T20:01:56.024Z,102246.03
2023-03-04T20:04:22.829Z,102247.69
2023-03-04T20:06:51.330Z,102250.69
2023-03-04T20:09:19.240Z,102246.56
2023-03-04T20:11:57.801Z,102254.25
2023-03-04T20:14:27.485Z,102247.41
2023-03-04T20:16:54.153Z,102247.94
2023-03-04T20:19:20.767Z,102252.59
2023-03-04T20:21:47.385Z,102252.88
2023-03-04T20:24:15.184Z,102246.03
2023-03-04T20:26:41.881Z,102249.84
2023-03-04T20:29:08.494Z,102244.34
2023-03-04T20:31:38.455Z,102248.19
2023-03-04T20:34:06.392Z,102239.41
2023-03-04T20:36:33.256Z,102239.13
2023-03-04T20:39:02.748Z,102241.59
2023-03-04T20:41:31.741Z,102235.56
2023-03-04T20:43:58.540Z,102226.22
2023-03-04T20:46:45.207Z,102224.59
2023-03-04T20:49:24.271Z,102221.84
2023-03-04T20:52:11.483Z,102220.75
2023-03-04T20:54:39.040Z,102219.91
2023-03-04T20:57:10.748Z,102214.16
2023-03-04T20:59:40.248Z,102218.81
2023-03-04T21:02:09.127Z,102214.69
2023-03-04T21:04:35.844Z,102207.84
2023-03-04T21:07:02.613Z,102216.91
2023-03-04T21:09:30.967Z,102216.06
2023-03-04T21:11:59.754Z,102206.19
2023-03-04T21:14:30.531Z,102198.22
2023-03-04T21:16:59.656Z,102205.34
2023-03-04T21:19:37.064Z,102205.06
2023-03-04T21:22:04.609Z,102202.34
2023-03-04T21:24:34.382Z,102187.78
2023-03-04T21:27:01.992Z,102188.63
2023-03-04T21:29:29.034Z,102193.53
2023-03-04T21:32:13.297Z,102193.81
2023-03-04T21:34:51.797Z,102192.16
2023-03-04T21:37:19.889Z,102183.91
2023-03-04T21:39:46.663Z,102183.13
2023-03-04T21:42:13.585Z,102189.41
2023-03-04T21:44:49.224Z,102187.50
2023-03-04T21:47:16.865Z,102187.50
2023-03-04T21:49:43.670Z,102179.53
2023-03-04T21:52:10.384Z,102172.94
2023-03-04T21:54:37.260Z,102177.06
2023-03-04T21:57:05.109Z,102171.31
2023-03-04T21:59:31.828Z,102180.63
2023-03-04T22:01:58.678Z,102174.31
2023-03-04T22:04:25.463Z,102172.94
2023-03-04T22:06:52.100Z,102172.09
2023-03-04T22:09:18.785Z,102174.56
2023-03-04T22:11:48.058Z,102172.09
2023-03-04T22:14:14.818Z,102173.47
2023-03-04T22:16:54.638Z,102172.91
2023-03-04T22:19:23.881Z,102175.13
2023-03-04T22:21:51.599Z,102167.16
2023-03-04T22:24:18.919Z,102164.41
2023-03-04T22:26:46.082Z,102164.69
2023-03-04T22:29:12.820Z,102163.03
2023-03-04T22:31:39.649Z,102167.97
2023-03-04T22:34:08.970Z,102164.69
2023-03-04T22:36:38.801Z,102160.56
2023-03-04T22:39:07.829Z,102151.78
2023-03-04T22:41:35.101Z,102152.88
2023-03-04T22:44:02.161Z,102149.59
2023-03-04T22:46:33.499Z,102157.28
2023-03-04T22:49:04.806Z,102152.03
2023-03-04T22:51:32.326Z,102155.06
2023-03-04T22:53:59.023Z,102147.69
2023-03-04T22:56:25.726Z,102149.59
2023-03-04T22:58:52.735Z,102152.59
2023-03-04T23:01:20.141Z,102144.66
2023-03-04T23:03:48.737Z,102138.06
2023-03-04T23:06:21.327Z,102132.28
2023-03-04T23:08:50.062Z,102128.47
2023-03-04T23:11:29.195Z,102121.31
2023-03-04T23:13:57.069Z,102114.19
2023-03-04T23:16:27.797Z,102111.72
2023-03-04T23:18:54.543Z,102113.09
2023-03-04T23:21:24.119Z,102103.22
2023-03-04T23:23:51.952Z,102107.06
2023-03-04T23:26:27.714Z,102108.16
2023-03-04T23:28:56.922Z,102104.84
2023-03-04T23:31:24.308Z,102111.97
2023-03-04T23:33:51.208Z,102108.97
2023-03-04T23:36:19.589Z,102109.81
2023-03-04T23:38:48.387Z,102097.19
2023-03-04T23:41:17.946Z,102096.63
2023-03-04T23:43:45.058Z,102089.78
2023-03-04T23:46:11.980Z,102085.66
2023-03-04T23:48:39.958Z,102076.31
2023-03-04T23:51:06.743Z,102074.16
2023-03-04T23:53:34.519Z,102065.66
2023-03-04T23:56:01.159Z,102061.00
2023-03-04T23:58:27.868Z,102064.81
